Time;durP1;ratioP1;P1;durP2;ratioP2;P2;SDS_P1;SDS_P2;PMS_P1;PMS_P2;Temp;Humidity;BMP_temperature;BMP_pressure;BME280_temperature;BME280_humidity;BME280_pressure;Samples;Min_cycle;Max_cycle;Signal;HPM_P1;HPM_P2
2023/01/05 00:00:09;;;;;;;7.13;1.63;;;;;;;10.34;88.26;100257.75;5057470;28;20207;-82
2023/01/05 00:02:37;;;;;;;7.93;1.87;;;;;;;10.32;89.42;100263.19;5043984;28;20206;-81
2023/01/05 00:05:04;;;;;;;9.93;2.07;;;;;;;10.32;89.97;100249.88;5041979;28;20587;-82
2023/01/05 00:07:30;;;;;;;7.43;1.90;;;;;;;10.34;89.75;100263.94;5049751;28;20209;-82
2023/01/05 00:09:57;;;;;;;5.47;1.70;;;;;;;10.39;89.51;100272.44;5043941;28;20218;-82
2023/01/05 00:23:25;;;;;;;9.10;2.00;;;;;;;10.51;87.84;100291.19;5039493;28;20208;-82
2023/01/05 00:25:51;;;;;;;9.67;1.90;;;;;;;10.50;87.99;100298.34;5048537;28;20224;-82
2023/01/05 00:28:17;;;;;;;10.27;1.80;;;;;;;10.50;88.43;100289.50;5043512;28;20241;-82
2023/01/05 00:30:46;;;;;;;7.30;2.07;;;;;;;10.54;88.63;100291.00;5045648;28;20202;-82
2023/01/05 00:33:16;;;;;;;7.03;1.40;;;;;;;10.52;89.00;100303.56;5046086;28;20215;-82
2023/01/05 00:35:43;;;;;;;8.57;1.97;;;;;;;10.50;90.04;100293.00;5049960;28;20215;-82
2023/01/05 00:38:09;;;;;;;10.60;2.03;;;;;;;10.52;89.91;100303.56;5045494;28;20225;-82
2023/01/05 00:40:36;;;;;;;5.87;1.60;;;;;;;10.49;90.06;100288.63;5045115;28;20212;-82
2023/01/05 00:43:04;;;;;;;7.07;1.77;;;;;;;10.47;90.15;100295.03;5045273;28;20200;-83
2023/01/05 00:45:30;;;;;;;6.97;1.83;;;;;;;10.46;90.59;100296.84;5048301;28;20213;-82
2023/01/05 00:47:56;;;;;;;8.57;1.90;;;;;;;10.43;90.98;100297.88;5046856;28;20234;-80
2023/01/05 00:50:26;;;;;;;9.40;2.83;;;;;;;10.37;90.82;100300.13;5048203;28;20209;-81
2023/01/05 00:52:52;;;;;;;5.93;1.37;;;;;;;10.34;90.59;100301.19;5043467;28;20673;-80
2023/01/05 00:55:19;;;;;;;6.43;1.50;;;;;;;10.30;90.28;100306.81;5051634;28;20210;-80
2023/01/05 00:57:45;;;;;;;4.43;1.13;;;;;;;10.26;90.56;100308.81;5054146;28;20226;-81
2023/01/05 01:00:16;;;;;;;6.70;2.00;;;;;;;10.22;90.46;100309.13;5054595;28;20654;-80
2023/01/05 01:02:43;;;;;;;6.13;1.50;;;;;;;10.20;90.56;100313.72;5047276;28;20204;-80
2023/01/05 01:05:10;;;;;;;7.10;1.60;;;;;;;10.19;90.75;100306.69;5045216;28;20217;-81
2023/01/05 01:07:37;;;;;;;6.67;1.47;;;;;;;10.12;91.02;100311.53;5059638;28;20236;-80
2023/01/05 01:10:04;;;;;;;6.37;1.30;;;;;;;10.10;91.00;100329.41;5054496;28;20678;-81
2023/01/05 01:12:31;;;;;;;5.67;1.50;;;;;;;10.10;91.10;100332.06;5053758;28;20225;-81
2023/01/05 01:14:57;;;;;;;6.20;1.33;;;;;;;10.06;90.51;100328.75;5054411;28;20208;-81
2023/01/05 01:17:24;;;;;;;5.83;2.03;;;;;;;10.05;90.38;100332.38;5042957;28;20209;-81
2023/01/05 01:19:50;;;;;;;6.90;1.60;;;;;;;10.03;90.09;100336.94;5049681;28;20205;-81
2023/01/05 01:22:17;;;;;;;6.07;1.60;;;;;;;10.03;89.74;100341.44;5053341;28;20205;-81
2023/01/05 01:24:45;;;;;;;7.27;1.53;;;;;;;10.03;90.11;100326.28;5055974;28;20213;-81
2023/01/05 01:27:11;;;;;;;9.33;2.10;;;;;;;10.05;89.81;100335.03;5041881;28;20210;-81
2023/01/05 01:29:38;;;;;;;7.37;2.07;;;;;;;10.06;89.71;100335.88;5050618;28;20480;-81
2023/01/05 01:32:05;;;;;;;6.43;1.83;;;;;;;10.06;89.48;100322.56;5052064;28;20694;-81
2023/01/05 01:34:31;;;;;;;8.77;2.10;;;;;;;10.09;89.31;100330.34;5050381;28;20209;-81
2023/01/05 01:36:58;;;;;;;9.90;1.97;;;;;;;10.09;89.43;100322.38;5045219;28;20209;-82
2023/01/05 01:39:25;;;;;;;7.87;1.63;;;;;;;10.12;89.04;100332.81;5046604;28;20246;-82
2023/01/05 01:41:53;;;;;;;11.23;2.70;;;;;;;10.13;89.09;100334.53;5052377;28;20564;-81
2023/01/05 01:44:50;;;;;;;13.57;3.50;;;;;;;10.16;89.08;100342.31;5055357;28;20205;-81
2023/01/05 01:47:22;;;;;;;11.43;2.10;;;;;;;10.16;88.78;100337.00;5000427;28;20213;-81
2023/01/05 01:49:50;;;;;;;11.40;2.40;;;;;;;10.18;89.03;100336.91;5040550;28;20209;-82
2023/01/05 01:52:18;;;;;;;10.30;2.10;;;;;;;10.19;88.99;100347.47;5045666;28;20236;-81
2023/01/05 01:54:45;;;;;;;11.87;2.40;;;;;;;10.17;89.02;100349.34;5049144;28;20202;-81
2023/01/05 01:57:13;;;;;;;12.47;2.80;;;;;;;10.18;89.13;100343.06;5051062;28;20857;-81
2023/01/05 01:59:40;;;;;;;12.77;1.93;;;;;;;10.16;88.82;100350.31;5047544;28;20230;-81
2023/01/05 02:02:08;;;;;;;9.77;2.07;;;;;;;10.17;88.31;100346.69;5043415;28;20285;-81
2023/01/05 02:04:37;;;;;;;12.90;2.80;;;;;;;10.15;88.21;100353.06;5046060;28;20234;-81
2023/01/05 02:07:04;;;;;;;12.40;2.60;;;;;;;10.17;87.95;100346.69;5044686;28;20205;-81
2023/01/05 02:09:31;;;;;;;8.13;1.90;;;;;;;10.19;87.99;100354.59;5051979;28;20580;-81
2023/01/05 02:12:06;;;;;;;10.10;2.20;;;;;;;10.19;87.35;100354.59;5041608;28;20221;-81
2023/01/05 02:14:45;;;;;;;9.67;3.00;;;;;;;10.19;87.29;100344.81;5046419;28;20197;-82
2023/01/05 02:17:20;;;;;;;10.87;2.53;;;;;;;10.18;86.87;100343.06;5052165;28;20193;-81
2023/01/05 02:20:15;;;;;;;10.37;1.93;;;;;;;10.18;86.90;100359.03;5047405;28;20681;-81
2023/01/05 02:23:02;;;;;;;12.93;2.20;;;;;;;10.20;86.94;100356.31;5049775;28;20189;-82
2023/01/05 02:25:58;;;;;;;7.57;2.37;;;;;;;10.19;86.81;100350.13;5049011;28;20682;-81
2023/01/05 02:28:43;;;;;;;8.77;3.37;;;;;;;10.20;86.62;100343.84;5048575;28;20602;-82
2023/01/05 02:31:17;;;;;;;10.63;2.23;;;;;;;10.17;86.85;100341.38;5039789;28;20218;-81
2023/01/05 02:33:59;;;;;;;7.90;2.17;;;;;;;10.19;86.83;100333.31;5047546;28;20197;-81
2023/01/05 02:36:29;;;;;;;12.77;2.50;;;;;;;10.17;86.30;100338.69;5041746;28;20235;-81
2023/01/05 02:39:03;;;;;;;6.83;2.27;;;;;;;10.17;86.80;100335.19;5051114;28;20229;-83
2023/01/05 02:41:35;;;;;;;11.93;2.47;;;;;;;10.17;86.42;100341.38;5050978;28;20201;-83
2023/01/05 02:44:02;;;;;;;11.60;2.43;;;;;;;10.14;86.15;100336.25;5053509;28;20209;-82
2023/01/05 02:47:00;;;;;;;6.23;1.63;;;;;;;10.10;85.81;100330.25;5052723;28;20673;-81
2023/01/05 02:49:27;;;;;;;10.63;2.07;;;;;;;10.10;86.02;100335.59;5046729;28;20225;-82
2023/01/05 02:51:58;;;;;;;7.20;2.00;;;;;;;10.13;85.72;100337.19;5056881;28;20225;-83
2023/01/05 02:54:29;;;;;;;8.77;2.10;;;;;;;10.14;85.83;100330.91;5053868;28;20243;-82
2023/01/05 02:57:00;;;;;;;9.47;2.67;;;;;;;10.16;85.89;100336.13;5046426;28;20215;-82
2023/01/05 02:59:31;;;;;;;7.87;2.53;;;;;;;10.17;85.86;100330.72;5047461;28;20708;-82
2023/01/05 03:02:02;;;;;;;9.33;2.40;;;;;;;10.19;85.98;100344.81;5042419;28;20205;-82
2023/01/05 03:04:32;;;;;;;6.17;3.10;;;;;;;10.17;86.01;100348.50;5047235;28;20209;-81
2023/01/05 03:07:02;;;;;;;11.00;2.77;;;;;;;10.16;86.34;100350.31;5045583;28;20213;-81
2023/01/05 03:09:35;;;;;;;12.77;2.87;;;;;;;10.13;86.66;100353.16;5049468;28;20225;-81
2023/01/05 03:14:57;;;;;;;15.10;2.90;;;;;;;10.14;87.40;100367.31;5048882;28;20720;-80
2023/01/05 03:17:32;;;;;;;10.00;2.67;;;;;;;10.12;87.84;100367.41;5043655;28;20206;-81
2023/01/05 03:19:59;;;;;;;10.20;2.50;;;;;;;10.08;88.68;100365.91;5046006;28;20682;-80
2023/01/05 03:36:38;;;;;;;10.83;2.70;;;;;;;9.93;90.72;100388.19;5044585;28;20251;-81
2023/01/05 03:39:07;;;;;;;11.70;2.97;;;;;;;9.92;91.17;100397.13;5051317;28;20248;-81
2023/01/05 03:41:34;;;;;;;8.77;2.30;;;;;;;9.89;91.23;100390.19;5052097;28;20300;-81
2023/01/05 03:44:00;;;;;;;13.20;2.53;;;;;;;9.90;91.06;100391.91;5040368;28;20213;-80
2023/01/05 03:46:27;;;;;;;11.87;2.87;;;;;;;9.88;91.57;100387.63;5053932;28;20201;-81
2023/01/05 03:48:55;;;;;;;7.83;1.90;;;;;;;9.87;91.42;100396.56;5052122;28;20699;-81
2023/01/05 03:51:22;;;;;;;11.43;2.83;;;;;;;9.85;91.67;100393.16;5051959;28;20205;-81
2023/01/05 03:53:48;;;;;;;11.10;2.27;;;;;;;9.83;91.71;100389.75;5052133;28;20236;-81
2023/01/05 03:56:15;;;;;;;12.90;2.50;;;;;;;9.82;91.49;100398.69;5052125;28;20202;-81
2023/01/05 03:58:42;;;;;;;10.03;2.20;;;;;;;9.81;91.52;100400.50;5051818;28;20241;-80
2023/01/05 04:01:08;;;;;;;12.20;2.70;;;;;;;9.82;91.45;100404.00;5045035;28;20224;-80
2023/01/05 04:03:34;;;;;;;8.67;2.17;;;;;;;9.83;90.98;100400.38;5056036;28;20194;-81
2023/01/05 04:06:02;;;;;;;11.20;2.70;;;;;;;9.82;91.04;100404.00;5050947;28;20210;-80
2023/01/05 04:08:29;;;;;;;10.90;3.03;;;;;;;9.81;91.00;100410.28;5046017;28;20229;-80
2023/01/05 04:10:56;;;;;;;11.33;3.00;;;;;;;9.80;90.98;100411.22;5050607;28;20209;-80
2023/01/05 04:13:22;;;;;;;9.10;2.10;;;;;;;9.81;90.98;100412.94;5050888;28;20618;-80
2023/01/05 04:15:49;;;;;;;11.10;2.60;;;;;;;9.80;91.12;100416.53;5051241;28;20622;-81
2023/01/05 04:18:15;;;;;;;10.07;2.30;;;;;;;9.79;91.06;100412.16;5049486;28;20271;-81
2023/01/05 04:29:58;;;;;;;10.83;2.03;;;;;;;9.82;90.50;100426.13;5023581;28;20244;-72
2023/01/05 04:32:25;;;;;;;10.53;3.03;;;;;;;9.80;90.48;100429.84;5024151;28;20230;-72
2023/01/05 04:34:51;;;;;;;7.93;2.60;;;;;;;9.80;90.55;100422.72;5020148;28;20207;-72
2023/01/05 04:37:18;;;;;;;12.33;2.73;;;;;;;9.77;91.40;100422.06;5019781;28;20222;-71
2023/01/05 04:39:44;;;;;;;13.67;2.70;;;;;;;9.74;91.50;100426.59;5024846;28;20213;-73
2023/01/05 04:42:11;;;;;;;8.97;2.53;;;;;;;9.73;91.82;100432.03;5023330;28;20222;-72
2023/01/05 04:44:37;;;;;;;11.80;2.80;;;;;;;9.71;92.16;100437.44;5021579;28;20229;-72
2023/01/05 04:47:05;;;;;;;11.10;2.53;;;;;;;9.73;91.95;100440.84;5022014;28;20268;-72
2023/01/05 04:49:32;;;;;;;9.30;2.17;;;;;;;9.68;91.79;100440.28;5021635;28;20273;-72
2023/01/05 04:51:58;;;;;;;10.23;1.97;;;;;;;9.68;91.64;100432.31;5022934;28;20210;-72
2023/01/05 04:54:25;;;;;;;6.47;1.80;;;;;;;9.67;90.96;100430.59;5017231;28;20226;-72
2023/01/05 04:56:51;;;;;;;10.00;3.33;;;;;;;9.67;90.72;100433.25;5019941;28;20202;-73
2023/01/05 04:59:18;;;;;;;12.33;2.47;;;;;;;9.68;91.03;100447.41;5022714;28;20225;-73
2023/01/05 05:01:44;;;;;;;9.90;2.30;;;;;;;9.67;90.42;100438.56;5019865;28;20313;-72
2023/01/05 05:04:12;;;;;;;12.93;2.47;;;;;;;9.68;90.53;100439.44;5026550;28;20293;-72
2023/01/05 05:06:38;;;;;;;7.63;2.53;;;;;;;9.68;90.48;100445.59;5023055;28;20210;-73
2023/01/05 05:09:05;;;;;;;5.33;1.97;;;;;;;9.70;90.37;100449.03;5023803;28;20210;-72
2023/01/05 05:11:32;;;;;;;8.50;1.80;;;;;;;9.70;90.42;100440.19;5024753;28;20210;-72
2023/01/05 05:13:58;;;;;;;6.20;1.83;;;;;;;9.68;90.45;100452.72;5025616;28;20222;-72
2023/01/05 05:16:24;;;;;;;7.03;1.30;;;;;;;9.69;90.47;100460.59;5025324;28;20198;-72
2023/01/05 05:18:51;;;;;;;10.03;2.20;;;;;;;9.69;90.81;100468.59;5027471;28;20222;-73
2023/01/05 05:21:19;;;;;;;9.57;2.07;;;;;;;9.68;90.66;100468.69;5023524;28;20218;-73
2023/01/05 05:23:45;;;;;;;7.30;2.17;;;;;;;9.66;91.29;100476.78;5028007;28;20204;-71
2023/01/05 05:26:11;;;;;;;5.53;2.07;;;;;;;9.65;91.30;100485.69;5026028;28;20300;-72
2023/01/05 05:28:38;;;;;;;9.80;2.10;;;;;;;9.65;92.55;100492.81;5022927;28;20230;-72
2023/01/05 05:31:04;;;;;;;7.90;2.00;;;;;;;9.64;92.60;100491.13;5026518;28;20217;-72
2023/01/05 05:33:31;;;;;;;11.73;2.47;;;;;;;9.63;92.88;100492.91;5025508;28;20222;-72
2023/01/05 05:35:57;;;;;;;9.27;2.93;;;;;;;9.62;93.31;100485.88;5029714;28;20202;-72
2023/01/05 05:38:25;;;;;;;8.40;2.20;;;;;;;9.59;93.38;100485.22;5020509;28;20225;-72
2023/01/05 05:40:52;;;;;;;9.20;2.00;;;;;;;9.56;94.26;100499.56;5018469;28;20211;-72
2023/01/05 05:43:18;;;;;;;10.20;2.80;;;;;;;9.53;94.23;100499.72;5023864;28;20206;-72
2023/01/05 05:45:45;;;;;;;12.00;2.93;;;;;;;9.53;94.32;100501.53;5029196;28;20198;-72
2023/01/05 05:48:11;;;;;;;7.77;2.27;;;;;;;9.53;94.87;100507.72;5027065;28;20233;-72
2023/01/05 05:50:38;;;;;;;10.07;2.17;;;;;;;9.50;94.13;100501.72;5028672;28;20640;-71
2023/01/05 05:53:04;;;;;;;7.87;2.57;;;;;;;9.49;94.22;100503.56;5026385;28;20644;-72
2023/01/05 05:55:33;;;;;;;12.30;3.07;;;;;;;9.49;93.71;100503.56;5022998;28;20213;-72
2023/01/05 05:57:59;;;;;;;10.33;2.83;;;;;;;9.49;93.77;100503.56;5025747;28;20262;-72
2023/01/05 06:00:26;;;;;;;11.20;2.50;;;;;;;9.49;93.93;100508.88;5029739;28;20213;-72
2023/01/05 06:02:52;;;;;;;8.33;2.47;;;;;;;9.51;93.37;100506.09;5027382;28;20202;-72
2023/01/05 06:05:19;;;;;;;11.70;3.10;;;;;;;9.49;93.40;100514.19;5026690;28;20210;-72
2023/01/05 06:07:45;;;;;;;6.00;1.83;;;;;;;9.49;92.89;100510.69;5011813;28;20241;-72
2023/01/05 06:10:12;;;;;;;8.77;2.53;;;;;;;9.49;93.04;100513.34;5023441;28;20965;-72
2023/01/05 06:12:39;;;;;;;7.63;1.90;;;;;;;9.48;92.76;100517.78;5022627;28;20222;-73
2023/01/05 06:15:07;;;;;;;9.83;2.67;;;;;;;9.50;92.55;100523.00;5025105;28;20214;-72
2023/01/05 06:17:34;;;;;;;5.50;1.97;;;;;;;9.49;92.44;100530.13;5028603;28;20725;-72
2023/01/05 06:20:00;;;;;;;8.37;2.10;;;;;;;9.50;92.13;100520.31;5024510;28;20205;-72
2023/01/05 06:22:27;;;;;;;7.90;2.10;;;;;;;9.52;92.03;100529.06;5020766;28;20203;-73
2023/01/05 06:24:53;;;;;;;9.43;2.40;;;;;;;9.51;91.81;100528.22;5027371;28;20209;-72
2023/01/05 06:27:20;;;;;;;4.97;1.67;;;;;;;9.51;92.07;100538.84;5026395;28;20240;-72
2023/01/05 06:29:48;;;;;;;5.63;1.30;;;;;;;9.52;92.34;100537.03;5027914;28;20214;-72
2023/01/05 06:32:14;;;;;;;4.47;1.80;;;;;;;9.50;92.25;100539.78;5022640;28;20605;-73
2023/01/05 06:34:41;;;;;;;6.17;1.70;;;;;;;9.50;91.92;100547.78;5021168;28;20230;-73
2023/01/05 06:37:07;;;;;;;6.77;1.73;;;;;;;9.49;92.00;100546.09;5027488;28;20222;-73
2023/01/05 06:39:33;;;;;;;10.53;2.50;;;;;;;9.50;92.22;100546.91;5026111;28;20664;-73
2023/01/05 06:42:00;;;;;;;8.27;2.13;;;;;;;9.50;91.84;100555.75;5027021;28;20688;-73
2023/01/05 06:44:26;;;;;;;6.57;1.83;;;;;;;9.50;92.09;100557.53;5021827;28;20198;-73
2023/01/05 06:46:54;;;;;;;7.10;2.10;;;;;;;9.50;92.13;100553.09;5026842;28;20223;-72
2023/01/05 06:49:21;;;;;;;11.37;2.17;;;;;;;9.46;91.48;100562.22;5022823;28;20214;-73
2023/01/05 06:51:47;;;;;;;9.37;1.73;;;;;;;9.47;91.55;100565.72;5020213;28;20213;-73
2023/01/05 06:54:14;;;;;;;7.23;1.57;;;;;;;9.45;91.05;100568.47;5027442;28;20230;-73
2023/01/05 06:56:40;;;;;;;5.90;2.23;;;;;;;9.47;91.53;100571.06;5028227;28;20813;-73
2023/01/05 06:59:07;;;;;;;9.97;1.87;;;;;;;9.46;91.32;100570.19;5028187;28;20214;-73
2023/01/05 07:01:33;;;;;;;8.40;2.43;;;;;;;9.46;92.07;100593.25;5027384;28;20206;-73
2023/01/05 07:04:01;;;;;;;10.20;2.63;;;;;;;9.45;91.87;100586.22;5025117;28;20206;-72
2023/01/05 07:06:27;;;;;;;9.43;2.37;;;;;;;9.44;92.80;100585.38;5026924;28;20210;-72
2023/01/05 07:08:54;;;;;;;9.97;2.23;;;;;;;9.45;92.78;100597.72;5027179;28;20225;-72
2023/01/05 07:11:20;;;;;;;9.20;2.17;;;;;;;9.45;92.75;100588.88;5022608;28;20206;-72
2023/01/05 07:13:48;;;;;;;5.27;2.00;;;;;;;9.44;92.59;100598.66;5027313;28;20229;-72
2023/01/05 07:16:14;;;;;;;10.70;2.20;;;;;;;9.44;93.06;100598.66;5025074;28;20237;-71
2023/01/05 07:18:41;;;;;;;6.40;1.80;;;;;;;9.40;93.10;100605.97;5025781;28;20590;-72
2023/01/05 07:21:09;;;;;;;8.97;2.50;;;;;;;9.40;93.31;100621.06;5026092;28;20236;-72
2023/01/05 07:23:36;;;;;;;8.23;1.97;;;;;;;9.40;93.36;100621.06;5025739;28;20206;-73
2023/01/05 07:26:03;;;;;;;10.77;2.30;;;;;;;9.37;93.54;100627.41;5024488;28;20217;-73
2023/01/05 07:28:29;;;;;;;8.33;1.80;;;;;;;9.36;93.25;100624.81;5017978;28;20617;-72
2023/01/05 07:30:56;;;;;;;6.97;1.87;;;;;;;9.38;93.62;100630.91;5027981;28;20206;-73
2023/01/05 07:33:22;;;;;;;6.03;1.73;;;;;;;9.38;93.62;100625.59;5025604;28;20233;-73
2023/01/05 07:35:49;;;;;;;7.37;1.80;;;;;;;9.39;93.75;100624.66;5017930;28;20207;-72
2023/01/05 07:38:16;;;;;;;7.77;1.90;;;;;;;9.40;93.63;100626.38;5025072;28;20230;-72
2023/01/05 07:40:43;;;;;;;8.23;2.10;;;;;;;9.38;93.20;100631.78;5028410;28;20202;-72
2023/01/05 07:43:09;;;;;;;6.13;1.20;;;;;;;9.35;93.20;100628.44;5022797;28;20203;-72
2023/01/05 07:45:36;;;;;;;9.13;2.03;;;;;;;9.35;93.19;100639.06;5026362;28;20203;-72
2023/01/05 07:48:03;;;;;;;9.73;1.90;;;;;;;9.36;93.05;100633.66;5025376;28;20241;-72
2023/01/05 07:50:29;;;;;;;6.93;1.50;;;;;;;9.37;92.95;100629.19;5022237;28;20695;-72
2023/01/05 07:52:58;;;;;;;6.00;1.53;;;;;;;9.38;93.15;100638.88;5021530;28;20594;-72
2023/01/05 07:55:25;;;;;;;6.57;1.70;;;;;;;9.38;92.54;100639.75;5026791;28;20209;-72
2023/01/05 07:57:52;;;;;;;4.23;1.40;;;;;;;9.38;93.19;100646.88;5023318;28;20225;-72
2023/01/05 08:00:19;;;;;;;5.07;1.40;;;;;;;9.40;92.81;100652.94;5027430;28;20214;-72
2023/01/05 08:02:45;;;;;;;5.03;1.80;;;;;;;9.40;92.31;100652.94;5023236;28;20213;-73
2023/01/05 08:05:12;;;;;;;7.53;1.73;;;;;;;9.42;92.06;100667.00;5019721;28;20229;-73
2023/01/05 08:07:38;;;;;;;7.37;1.70;;;;;;;9.42;91.94;100667.00;5026325;28;20218;-74
2023/01/05 08:15:35;;;;;;;4.17;1.70;;;;;;;9.42;91.38;100679.44;5023593;28;20332;-73
2023/01/05 08:18:01;;;;;;;5.63;3.10;;;;;;;9.42;91.01;100682.97;5018985;28;20234;-73
2023/01/05 08:20:28;;;;;;;6.00;1.60;;;;;;;9.42;91.58;100682.97;5021942;28;20218;-73
2023/01/05 08:22:54;;;;;;;7.67;1.90;;;;;;;9.45;91.65;100692.56;5014099;28;20218;-73
2023/01/05 08:25:21;;;;;;;7.73;2.53;;;;;;;9.47;91.13;100696.00;5021480;28;20214;-73
2023/01/05 08:27:48;;;;;;;7.00;1.90;;;;;;;9.45;91.87;100692.56;5022143;28;20294;-73
2023/01/05 08:30:16;;;;;;;6.73;2.23;;;;;;;9.47;91.58;100696.84;5021774;28;20214;-73
2023/01/05 08:32:43;;;;;;;5.97;1.73;;;;;;;9.46;91.65;100703.13;5021125;28;20556;-73
2023/01/05 08:35:10;;;;;;;11.40;2.30;;;;;;;9.49;91.72;100710.06;5023356;28;20743;-73
2023/01/05 08:37:36;;;;;;;4.70;2.00;;;;;;;9.50;92.08;100709.06;5021388;28;20231;-73
2023/01/05 08:40:03;;;;;;;7.37;1.87;;;;;;;9.50;91.62;100709.06;5023985;28;20210;-73
2023/01/05 08:42:30;;;;;;;9.53;2.33;;;;;;;9.50;91.39;100717.91;5017933;28;20210;-72
2023/01/05 08:44:56;;;;;;;8.67;2.07;;;;;;;9.49;91.60;100716.22;5025548;28;20202;-73
2023/01/05 08:47:24;;;;;;;5.90;2.20;;;;;;;9.50;92.14;100709.06;5013530;28;20226;-72
2023/01/05 08:49:50;;;;;;;5.70;1.90;;;;;;;9.50;91.49;100728.53;5024646;28;20206;-73
2023/01/05 08:52:17;;;;;;;5.43;1.73;;;;;;;9.52;91.52;100731.97;5025561;28;20208;-73
2023/01/05 08:54:43;;;;;;;3.73;1.70;;;;;;;9.51;90.76;100732.91;5021930;28;20230;-72
2023/01/05 08:57:10;;;;;;;5.17;1.40;;;;;;;9.53;91.13;100754.09;5023404;28;20231;-72
2023/01/05 08:59:37;;;;;;;7.23;1.80;;;;;;;9.53;90.55;100736.34;5025677;28;20210;-73
2023/01/05 09:02:03;;;;;;;4.83;1.40;;;;;;;9.54;90.88;100748.69;5018964;28;20348;-73
2023/01/05 09:04:31;;;;;;;6.83;1.23;;;;;;;9.56;90.08;100746.81;5023602;28;20209;-74
2023/01/05 09:06:57;;;;;;;6.77;2.13;;;;;;;9.60;89.96;100750.16;5018431;28;20758;-73
2023/01/05 09:09:24;;;;;;;7.97;1.40;;;;;;;9.62;90.33;100751.78;5022496;28;20211;-73
2023/01/05 09:11:50;;;;;;;6.60;1.87;;;;;;;9.65;89.45;100766.72;5027796;28;20300;-72
2023/01/05 09:14:17;;;;;;;5.17;1.77;;;;;;;9.69;89.89;100776.22;5025461;28;20226;-73
2023/01/05 09:16:44;;;;;;;8.50;2.03;;;;;;;9.70;89.56;100777.94;5026582;28;20198;-73
2023/01/05 09:19:11;;;;;;;9.23;1.87;;;;;;;9.73;89.27;100783.94;5028562;28;20206;-72
2023/01/05 09:21:39;;;;;;;6.50;1.60;;;;;;;9.77;89.07;100783.75;5028113;28;20198;-72
2023/01/05 09:24:07;;;;;;;4.83;2.00;;;;;;;9.79;89.02;100779.22;5026579;28;20256;-72
2023/01/05 09:26:34;;;;;;;9.93;2.03;;;;;;;9.78;89.12;100785.47;5024091;28;20617;-72
2023/01/05 09:29:00;;;;;;;5.63;1.97;;;;;;;9.79;89.36;100801.34;5021871;28;20668;-72
2023/01/05 09:31:27;;;;;;;7.10;1.50;;;;;;;9.80;88.74;100797.75;5022375;28;20320;-72
2023/01/05 09:33:53;;;;;;;5.47;1.60;;;;;;;9.80;89.02;100794.22;5021494;28;20576;-71
2023/01/05 09:36:19;;;;;;;5.60;1.47;;;;;;;9.80;89.09;100816.38;5022945;28;20225;-72
2023/01/05 09:38:50;;;;;;;7.27;1.27;;;;;;;9.78;88.54;100815.59;5029398;28;20237;-72
2023/01/05 09:41:22;;;;;;;5.90;1.50;;;;;;;9.79;88.86;100822.63;5026095;28;20293;-74
2023/01/05 09:43:52;;;;;;;3.67;1.30;;;;;;;9.78;89.49;100833.34;5018889;28;20195;-75
2023/01/05 09:46:21;;;;;;;5.00;1.30;;;;;;;9.74;90.28;100835.31;5022838;28;20207;-73
2023/01/05 09:48:52;;;;;;;6.90;1.90;;;;;;;9.72;90.76;100842.53;5023395;28;20592;-73
2023/01/05 09:51:19;;;;;;;8.63;1.87;;;;;;;9.72;90.96;100839.88;5024552;28;20203;-73
2023/01/05 09:53:46;;;;;;;8.20;2.00;;;;;;;9.72;91.46;100845.19;5020694;28;20210;-72
2023/01/05 09:56:25;;;;;;;5.97;1.67;;;;;;;9.70;91.73;100850.59;5027245;28;20233;-73
2023/01/05 09:58:53;;;;;;;6.43;1.70;;;;;;;9.67;92.50;100847.28;5026221;28;20229;-72
2023/01/05 10:01:21;;;;;;;7.97;1.97;;;;;;;9.66;92.84;100850.88;5021528;28;20211;-73
2023/01/05 10:03:55;;;;;;;5.90;1.53;;;;;;;9.64;93.47;100863.41;5024756;28;20660;-73
2023/01/05 10:06:26;;;;;;;3.53;1.50;;;;;;;9.62;93.93;100847.53;5025411;28;20199;-73
2023/01/05 10:08:54;;;;;;;5.27;1.33;;;;;;;9.59;94.72;100854.81;5019160;28;20222;-73
2023/01/05 10:14:18;;;;;;;7.40;2.33;;;;;;;9.54;95.29;100862.16;5023972;28;20237;-74
2023/01/05 10:16:45;;;;;;;6.17;1.73;;;;;;;9.52;95.34;100869.38;5024602;28;20203;-73
2023/01/05 10:19:13;;;;;;;6.50;1.77;;;;;;;9.50;96.29;100869.47;5019388;28;20214;-73
2023/01/05 10:21:52;;;;;;;4.93;1.57;;;;;;;9.49;96.53;100885.53;5025425;28;20554;-73
2023/01/05 10:24:27;;;;;;;4.70;1.80;;;;;;;9.49;96.32;100882.88;5020649;28;20775;-73
2023/01/05 10:27:03;;;;;;;6.93;1.47;;;;;;;9.49;96.47;100888.19;5021373;28;20289;-73
2023/01/05 10:29:37;;;;;;;6.23;1.60;;;;;;;9.47;97.37;100892.72;5026138;28;20218;-73
2023/01/05 10:32:11;;;;;;;7.63;2.20;;;;;;;9.45;97.43;100891.94;5021352;28;20207;-73
2023/01/05 10:34:54;;;;;;;4.30;1.87;;;;;;;9.44;98.20;100893.75;5014962;28;20753;-73
2023/01/05 10:37:37;;;;;;;5.10;1.23;;;;;;;9.43;98.56;100888.50;5026742;28;20214;-73
2023/01/05 10:40:16;;;;;;;6.53;1.70;;;;;;;9.44;98.38;100891.09;5021906;28;20580;-73
2023/01/05 10:42:57;;;;;;;6.60;2.17;;;;;;;9.47;98.56;100890.06;5019594;28;20210;-74
2023/01/05 10:45:29;;;;;;;4.27;1.70;;;;;;;9.50;99.42;100896.03;5019708;28;20489;-74
2023/01/05 10:47:56;;;;;;;3.87;1.47;;;;;;;9.50;98.67;100890.72;5020889;28;20769;-74
2023/01/05 10:50:35;;;;;;;3.27;1.20;;;;;;;9.51;98.59;100897.75;5020959;28;21290;-75
2023/01/05 10:53:09;;;;;;;5.37;1.63;;;;;;;9.51;98.54;100902.22;5014778;28;20241;-74
2023/01/05 10:55:43;;;;;;;8.53;1.60;;;;;;;9.53;98.78;100901.19;5020126;28;20230;-74
2023/01/05 10:58:23;;;;;;;5.47;1.33;;;;;;;9.57;98.43;100901.91;5020402;28;20230;-72
2023/01/05 11:00:50;;;;;;;4.57;0.83;;;;;;;9.57;97.95;100905.41;5018705;28;20559;-71
2023/01/05 11:03:18;;;;;;;4.23;0.93;;;;;;;9.57;97.90;100900.09;5015652;28;20202;-74
2023/01/05 11:05:47;;;;;;;2.57;1.07;;;;;;;9.59;97.20;100902.66;5014801;28;20210;-75
2023/01/05 11:08:16;;;;;;;3.23;1.00;;;;;;;9.59;96.62;100903.53;5012281;28;20226;-74
2023/01/05 11:10:50;;;;;;;6.90;1.13;;;;;;;9.63;96.49;100901.56;5019037;28;20241;-73
2023/01/05 11:13:22;;;;;;;4.03;1.23;;;;;;;9.65;95.90;100905.88;5019769;28;20222;-73
2023/01/05 11:15:54;;;;;;;3.63;1.00;;;;;;;9.65;95.83;100899.69;5015607;28;20234;-71
2023/01/05 11:18:25;;;;;;;3.23;1.07;;;;;;;9.64;95.46;100901.47;5013726;28;20230;-74
2023/01/05 11:21:06;;;;;;;7.87;1.63;;;;;;;9.68;95.74;100916.31;5018312;28;20206;-74
2023/01/05 11:23:36;;;;;;;3.40;0.90;;;;;;;9.71;95.62;100901.97;5014045;28;21567;-74
2023/01/05 11:26:21;;;;;;;2.10;1.23;;;;;;;9.75;95.47;100917.69;5020499;28;20206;-74
2023/01/05 11:28:58;;;;;;;2.47;0.80;;;;;;;9.75;94.16;100914.16;5016029;28;20237;-74
2023/01/05 11:31:31;;;;;;;1.07;0.60;;;;;;;9.77;94.25;100924.72;5019619;28;20679;-74
2023/01/05 11:34:00;;;;;;;3.70;1.00;;;;;;;9.75;93.61;100930.13;5017416;28;20210;-73
2023/01/05 11:36:26;;;;;;;2.03;0.93;;;;;;;9.75;92.89;100924.81;5017076;28;20213;-74
2023/01/05 11:38:55;;;;;;;2.50;1.00;;;;;;;9.78;92.92;100931.75;5019818;28;20245;-73
2023/01/05 11:41:23;;;;;;;2.30;0.80;;;;;;;9.81;92.38;100929.81;5019529;28;20202;-74
2023/01/05 11:43:53;;;;;;;5.57;1.10;;;;;;;9.85;92.67;100933.16;5021152;28;20214;-73
2023/01/05 11:46:21;;;;;;;3.40;1.83;;;;;;;9.88;92.44;100925.84;5014673;28;20206;-74
2023/01/05 11:48:54;;;;;;;4.13;3.17;;;;;;;9.91;92.20;100924.81;5017697;28;20234;-74
2023/01/05 11:51:33;;;;;;;2.20;1.40;;;;;;;9.92;92.16;100927.38;5017926;28;20203;-73
2023/01/05 11:53:59;;;;;;;3.57;1.00;;;;;;;9.92;92.31;100938.03;5015377;28;20238;-71
2023/01/05 11:56:26;;;;;;;3.17;1.00;;;;;;;9.93;92.51;100939.75;5013141;28;20227;-72
2023/01/05 11:58:55;;;;;;;2.77;0.70;;;;;;;9.95;92.14;100934.34;5017705;28;20230;-72
2023/01/05 12:01:45;;;;;;;2.27;0.87;;;;;;;9.94;92.55;100941.47;5020211;28;20692;-72
2023/01/05 12:04:29;;;;;;;1.90;1.13;;;;;;;9.93;92.07;100945.06;5026325;28;20211;-72
2023/01/05 12:07:07;;;;;;;3.73;1.20;;;;;;;9.94;91.63;100956.56;5024730;28;20230;-72
2023/01/05 12:09:38;;;;;;;3.33;1.20;;;;;;;9.92;91.28;100937.16;5021172;28;20203;-72
2023/01/05 12:12:19;;;;;;;5.00;1.57;;;;;;;9.92;90.94;100951.31;5026548;28;20221;-72
2023/01/05 12:15:07;;;;;;;5.23;1.37;;;;;;;9.91;90.86;100935.44;5021690;28;20226;-72
2023/01/05 12:17:43;;;;;;;3.87;1.77;;;;;;;9.92;90.77;100950.47;5018161;28;20221;-72
2023/01/05 12:20:45;;;;;;;3.90;1.10;;;;;;;9.92;90.59;100947.81;5022470;28;20591;-72
2023/01/05 12:23:36;;;;;;;3.93;1.10;;;;;;;9.92;90.26;100953.13;4984342;28;20214;-73